Time;durP1;ratioP1;P1;durP2;ratioP2;P2;SDS_P1;SDS_P2;PMS_P1;PMS_P2;Temp;Humidity;BMP_temperature;BMP_pressure;BME280_temperature;BME280_humidity;BME280_pressure;Samples;Min_cycle;Max_cycle;Signal;HPM_P1;HPM_P2
2021/11/17 02:27:41;;;;;;;2.08;1.10;;;11.30;60.90;;;;;;6230633;28;20045;-75
2021/11/17 02:30:57;;;;;;;4.22;1.45;;;11.30;60.80;;;;;;6222229;28;20034;-76
2021/11/17 02:34:13;;;;;;;1.85;1.35;;;11.30;60.90;;;;;;6208996;28;20053;-76
2021/11/17 02:37:44;;;;;;;6.20;1.38;;;11.30;60.80;;;;;;6230203;28;20037;-76
2021/11/17 02:41:09;;;;;;;1.67;1.05;;;11.30;61.00;;;;;;6190274;28;20109;-76
2021/11/17 02:44:20;;;;;;;5.53;1.65;;;11.30;61.00;;;;;;6208239;28;20088;-76
2021/11/17 02:47:46;;;;;;;1.63;0.90;;;11.20;61.00;;;;;;6227468;28;20043;-75
2021/11/17 02:51:37;;;;;;;3.35;1.20;;;11.20;61.10;;;;;;6225259;28;20033;-76
2021/11/17 02:55:01;;;;;;;3.03;0.80;;;11.20;61.30;;;;;;6216745;28;20046;-76
2021/11/17 02:58:23;;;;;;;2.20;1.10;;;11.20;61.20;;;;;;6234247;28;20490;-75
2021/11/17 03:01:36;;;;;;;2.65;1.15;;;11.20;61.20;;;;;;6237229;28;20203;-76
2021/11/17 03:04:45;;;;;;;1.55;1.10;;;11.20;61.30;;;;;;6221823;28;20048;-76
2021/11/17 03:08:01;;;;;;;1.40;0.90;;;11.20;61.30;;;;;;6211658;28;20087;-76
2021/11/17 03:11:31;;;;;;;2.95;1.58;;;11.30;61.30;;;;;;6235943;28;20482;-76
2021/11/17 03:14:50;;;;;;;2.53;1.17;;;11.30;61.10;;;;;;6216801;28;20105;-75
2021/11/17 03:18:06;;;;;;;1.30;0.85;;;11.30;61.20;;;;;;6240929;28;20144;-75
2021/11/17 03:21:36;;;;;;;2.08;0.90;;;11.30;61.30;;;;;;6224457;28;20044;-76
2021/11/17 03:25:08;;;;;;;1.50;0.90;;;11.30;61.40;;;;;;6241680;28;20132;-76
2021/11/17 03:28:18;;;;;;;0.93;0.65;;;11.30;61.30;;;;;;6208523;28;20053;-75
2021/11/17 03:31:37;;;;;;;1.75;0.90;;;11.30;61.20;;;;;;6261329;28;20095;-75
2021/11/17 03:34:57;;;;;;;1.70;0.95;;;11.30;61.30;;;;;;6266881;28;20087;-75
2021/11/17 03:38:12;;;;;;;1.50;1.15;;;11.30;61.60;;;;;;6263632;28;20050;-74
2021/11/17 03:41:32;;;;;;;1.95;1.13;;;11.30;61.60;;;;;;6261528;28;20041;-74
2021/11/17 03:44:36;;;;;;;1.83;0.85;;;11.30;61.60;;;;;;6255543;28;20029;-75
2021/11/17 03:48:02;;;;;;;1.77;0.80;;;11.20;61.60;;;;;;6257609;28;20045;-75
2021/11/17 03:51:12;;;;;;;1.58;0.75;;;11.20;61.60;;;;;;6252779;28;20053;-75
2021/11/17 03:54:26;;;;;;;0.60;0.50;;;11.20;61.60;;;;;;6251085;28;20108;-75
2021/11/17 03:57:50;;;;;;;1.45;0.68;;;11.30;61.60;;;;;;6260099;28;20033;-75
2021/11/17 04:01:30;;;;;;;3.80;0.70;;;11.30;62.40;;;;;;6244715;28;20439;-75
2021/11/17 04:04:31;;;;;;;0.60;0.60;;;11.30;61.50;;;;;;6259764;28;20036;-75
2021/11/17 04:08:07;;;;;;;0.28;0.28;;;11.30;61.30;;;;;;6252499;28;20033;-74
2021/11/17 04:11:15;;;;;;;0.95;0.70;;;11.30;61.30;;;;;;6240769;28;20088;-75
2021/11/17 04:14:47;;;;;;;0.70;0.60;;;11.30;61.40;;;;;;6272686;28;20089;-75
2021/11/17 04:17:57;;;;;;;1.10;0.73;;;11.30;61.60;;;;;;6264322;28;20076;-75
2021/11/17 04:21:25;;;;;;;0.35;0.35;;;11.20;61.60;;;;;;6246364;28;20128;-75
2021/11/17 04:24:29;;;;;;;0.80;0.50;;;11.20;61.60;;;;;;6262671;28;20035;-76
2021/11/17 04:28:01;;;;;;;0.45;0.35;;;11.20;61.60;;;;;;6264828;28;20068;-76
2021/11/17 04:31:21;;;;;;;0.43;0.40;;;11.20;61.60;;;;;;6267844;28;20041;-76
2021/11/17 04:34:40;;;;;;;0.40;0.40;;;11.20;61.60;;;;;;6241696;28;20037;-76
2021/11/17 04:37:51;;;;;;;0.25;0.25;;;11.20;61.50;;;;;;6251605;28;20112;-75
2021/11/17 04:41:17;;;;;;;0.50;0.32;;;11.20;61.40;;;;;;6270966;28;20457;-76
2021/11/17 04:44:29;;;;;;;0.40;0.40;;;11.30;61.30;;;;;;6260318;28;20050;-76
2021/11/17 04:47:51;;;;;;;0.82;0.52;;;11.30;61.20;;;;;;6281946;28;20033;-76
2021/11/17 04:51:07;;;;;;;0.82;0.60;;;11.30;61.10;;;;;;6258183;28;20370;-75
2021/11/17 04:54:36;;;;;;;1.30;0.60;;;11.30;61.00;;;;;;6240023;28;20060;-76
2021/11/17 04:57:51;;;;;;;0.65;0.47;;;11.40;61.00;;;;;;6252175;28;20057;-75
2021/11/17 05:01:20;;;;;;;0.40;0.40;;;11.40;60.90;;;;;;6272571;28;20108;-76
2021/11/17 05:04:30;;;;;;;0.73;0.47;;;11.40;60.70;;;;;;6265454;28;20108;-76
2021/11/17 05:08:05;;;;;;;0.47;0.32;;;11.40;60.60;;;;;;6252406;28;20091;-76
2021/11/17 05:11:30;;;;;;;0.68;0.30;;;11.40;60.50;;;;;;6249434;28;20136;-76
2021/11/17 05:14:53;;;;;;;0.52;0.30;;;11.50;60.40;;;;;;6260546;28;20119;-76
2021/11/17 05:18:00;;;;;;;1.00;0.35;;;11.40;60.10;;;;;;6262461;28;20462;-76
2021/11/17 05:21:09;;;;;;;0.25;0.25;;;11.40;60.00;;;;;;6265094;28;20501;-76
2021/11/17 05:24:10;;;;;;;0.20;0.20;;;11.40;60.00;;;;;;6246766;28;20087;-76
2021/11/17 05:27:17;;;;;;;1.20;0.55;;;11.40;60.00;;;;;;6262248;28;20029;-76
2021/11/17 05:30:34;;;;;;;0.57;0.30;;;11.40;60.00;;;;;;6260168;28;20037;-75
2021/11/17 05:33:44;;;;;;;0.65;0.47;;;11.40;60.00;;;;;;6250039;28;20057;-75
2021/11/17 05:36:57;;;;;;;4.18;0.45;;;11.40;60.00;;;;;;6246407;28;20037;-76
2021/11/17 05:40:28;;;;;;;0.30;0.30;;;11.30;60.20;;;;;;6259049;28;20037;-75
2021/11/17 05:43:28;;;;;;;0.45;0.40;;;11.30;60.40;;;;;;6265554;28;20029;-76
2021/11/17 05:46:41;;;;;;;1.92;0.88;;;11.20;60.50;;;;;;6253930;28;20160;-75
2021/11/17 05:49:51;;;;;;;0.82;0.60;;;11.20;60.70;;;;;;6272294;28;20060;-75
2021/11/17 05:52:57;;;;;;;1.73;0.70;;;11.10;60.90;;;;;;6260725;28;20045;-75
2021/11/17 05:56:47;;;;;;;1.92;0.60;;;11.10;61.30;;;;;;6259620;28;20120;-75
2021/11/17 05:59:48;;;;;;;0.55;0.50;;;11.00;61.60;;;;;;6234332;28;20477;-77
2021/11/17 06:03:05;;;;;;;1.10;0.63;;;11.00;61.70;;;;;;6244482;28;20035;-77
2021/11/17 06:06:05;;;;;;;4.90;0.60;;;11.00;61.60;;;;;;6247719;28;20094;-75
2021/11/17 06:09:06;;;;;;;0.73;0.50;;;11.10;61.60;;;;;;6259148;28;20041;-74
2021/11/17 06:12:14;;;;;;;0.52;0.40;;;11.10;61.70;;;;;;6247426;28;20113;-75
2021/11/17 06:15:16;;;;;;;2.25;0.80;;;11.10;61.60;;;;;;6252216;28;20124;-77
2021/11/17 06:18:21;;;;;;;1.58;0.80;;;11.10;61.70;;;;;;6261177;28;20041;-74
2021/11/17 06:21:23;;;;;;;1.23;0.80;;;11.10;61.70;;;;;;6270495;28;20068;-76
2021/11/17 06:24:27;;;;;;;1.27;0.50;;;11.10;61.60;;;;;;6240937;28;20057;-77
2021/11/17 06:27:32;;;;;;;1.45;0.70;;;11.10;61.40;;;;;;6244973;28;20449;-76
2021/11/17 06:30:38;;;;;;;1.83;0.88;;;11.10;61.40;;;;;;6262058;28;20466;-76
2021/11/17 06:33:39;;;;;;;0.73;0.57;;;11.10;61.30;;;;;;6243823;28;20048;-75
2021/11/17 06:36:40;;;;;;;2.20;0.80;;;11.10;61.20;;;;;;6241914;28;20367;-77
2021/11/17 06:39:45;;;;;;;0.95;0.52;;;11.10;61.10;;;;;;6264036;28;20044;-74
2021/11/17 06:42:55;;;;;;;1.02;0.60;;;11.10;61.10;;;;;;6262796;28;20137;-76
2021/11/17 06:45:58;;;;;;;0.75;0.63;;;11.10;61.20;;;;;;6259013;28;20101;-74
2021/11/17 06:48:58;;;;;;;1.10;0.98;;;11.10;61.30;;;;;;6267683;28;20462;-75
2021/11/17 06:51:59;;;;;;;1.48;0.68;;;11.00;61.30;;;;;;6281230;28;20037;-75
2021/11/17 06:55:00;;;;;;;3.72;0.70;;;11.00;61.30;;;;;;6269665;28;20711;-75
2021/11/17 06:58:02;;;;;;;1.70;1.25;;;11.10;61.30;;;;;;6244802;28;20061;-76
2021/11/17 07:01:03;;;;;;;4.50;0.57;;;11.10;61.00;;;;;;6240553;28;20466;-76
2021/11/17 07:04:04;;;;;;;5.25;0.85;;;11.10;61.00;;;;;;6239398;28;20180;-74
2021/11/17 07:07:07;;;;;;;1.08;0.88;;;11.10;61.10;;;;;;6231681;28;20034;-76
2021/11/17 07:10:15;;;;;;;2.63;1.08;;;11.10;61.00;;;;;;6219596;28;20033;-76
2021/11/17 07:13:16;;;;;;;1.25;0.88;;;11.10;60.80;;;;;;6238584;28;20065;-76
2021/11/17 07:16:18;;;;;;;6.95;1.13;;;11.10;60.80;;;;;;6242868;28;20037;-76
2021/11/17 07:19:24;;;;;;;1.67;0.82;;;11.20;60.90;;;;;;6201241;28;20041;-76
2021/11/17 07:22:25;;;;;;;0.43;0.38;;;11.20;60.80;;;;;;6220293;28;20045;-76
2021/11/17 07:25:26;;;;;;;2.60;0.73;;;11.10;60.50;;;;;;6207734;28;20538;-76
2021/11/17 07:28:27;;;;;;;1.48;0.70;;;11.20;60.50;;;;;;6240105;28;20041;-75
2021/11/17 07:31:28;;;;;;;1.30;0.82;;;11.20;60.40;;;;;;6262298;28;20048;-76
2021/11/17 07:34:29;;;;;;;2.05;0.85;;;11.20;60.30;;;;;;6259755;28;20033;-78
2021/11/17 07:37:30;;;;;;;1.23;0.80;;;11.20;60.20;;;;;;6260601;28;20057;-77
2021/11/17 07:40:33;;;;;;;3.05;1.45;;;11.20;60.20;;;;;;6253910;28;20036;-76
2021/11/17 07:43:34;;;;;;;0.90;0.52;;;11.20;60.20;;;;;;6263955;28;20033;-76
2021/11/17 07:46:35;;;;;;;2.33;1.42;;;11.20;60.60;;;;;;6259363;28;20090;-76
2021/11/17 07:49:37;;;;;;;1.08;0.85;;;11.10;60.70;;;;;;6249351;28;20477;-76
2021/11/17 07:52:38;;;;;;;1.48;1.02;;;11.10;60.80;;;;;;6267338;28;20361;-76
2021/11/17 07:55:42;;;;;;;7.43;1.40;;;11.10;60.90;;;;;;6260581;28;20048;-76
2021/11/17 07:58:46;;;;;;;3.72;1.23;;;11.10;61.10;;;;;;6251053;28;20097;-76
2021/11/17 08:01:49;;;;;;;6.95;1.20;;;11.10;61.10;;;;;;6267485;28;20128;-75
2021/11/17 08:04:50;;;;;;;1.52;0.90;;;11.20;61.20;;;;;;6251916;28;20209;-76
2021/11/17 08:07:52;;;;;;;5.30;1.05;;;11.10;61.10;;;;;;6263574;28;20036;-76
2021/11/17 08:10:53;;;;;;;1.90;0.98;;;11.10;61.20;;;;;;6267154;28;20521;-77
2021/11/17 08:13:54;;;;;;;1.92;0.82;;;11.20;61.30;;;;;;6263879;28;20064;-77
2021/11/17 08:16:55;;;;;;;1.65;1.05;;;11.20;61.10;;;;;;6259331;28;20500;-75
2021/11/17 08:19:55;;;;;;;1.27;0.80;;;11.20;61.00;;;;;;6262942;28;20113;-77
2021/11/17 08:22:58;;;;;;;1.23;0.80;;;11.20;60.90;;;;;;6262217;28;20187;-76
2021/11/17 08:26:00;;;;;;;6.38;1.20;;;11.20;60.90;;;;;;6237497;28;20025;-78
2021/11/17 08:29:00;;;;;;;0.95;0.73;;;11.20;60.80;;;;;;6253307;28;20044;-75
2021/11/17 08:32:02;;;;;;;1.95;0.90;;;11.20;60.70;;;;;;6271143;28;20494;-77
2021/11/17 08:35:04;;;;;;;4.30;1.10;;;11.20;60.30;;;;;;6280320;28;20113;-77
2021/11/17 08:38:08;;;;;;;1.70;1.00;;;11.30;60.20;;;;;;6239540;28;20044;-77
2021/11/17 08:41:11;;;;;;;1.95;1.10;;;11.30;60.00;;;;;;6241435;28;20149;-77
2021/11/17 08:44:13;;;;;;;2.30;1.35;;;11.30;59.90;;;;;;6268841;28;20044;-75
2021/11/17 08:47:16;;;;;;;2.60;1.30;;;11.30;59.90;;;;;;6248142;28;20025;-76
2021/11/17 08:50:21;;;;;;;1.60;0.82;;;11.30;59.90;;;;;;6267180;28;20381;-77
2021/11/17 08:53:25;;;;;;;1.33;0.93;;;11.30;59.80;;;;;;6243529;28;20086;-77
2021/11/17 08:56:30;;;;;;;1.40;1.17;;;11.30;59.90;;;;;;6222760;28;20038;-76
2021/11/17 08:59:32;;;;;;;3.05;1.17;;;11.30;59.90;;;;;;6217127;28;20104;-78
2021/11/17 09:02:33;;;;;;;1.23;1.00;;;11.30;59.90;;;;;;6221114;28;20049;-76
2021/11/17 09:05:48;;;;;;;6.45;0.95;;;11.30;60.00;;;;;;6234518;28;20148;-76
2021/11/17 09:08:49;;;;;;;2.35;1.20;;;11.30;59.90;;;;;;6221249;28;20037;-77
2021/11/17 09:11:50;;;;;;;2.92;1.30;;;11.20;59.80;;;;;;6219363;28;20044;-75
2021/11/17 09:14:51;;;;;;;2.20;0.90;;;11.30;60.00;;;;;;6219277;28;20051;-76
2021/11/17 09:17:52;;;;;;;2.10;1.38;;;11.20;60.00;;;;;;6232037;28;20051;-76
2021/11/17 09:20:54;;;;;;;1.05;0.93;;;11.20;60.10;;;;;;6233171;28;21206;-75
2021/11/17 09:23:55;;;;;;;4.22;1.20;;;11.20;60.00;;;;;;6239993;28;20125;-75
2021/11/17 09:26:56;;;;;;;1.98;1.40;;;11.20;60.00;;;;;;6223983;28;20124;-77
2021/11/17 09:29:59;;;;;;;3.00;1.33;;;11.20;60.00;;;;;;6247488;28;20119;-77
2021/11/17 09:33:04;;;;;;;2.33;1.30;;;11.20;60.10;;;;;;6242771;28;20048;-76
2021/11/17 09:36:06;;;;;;;2.05;1.23;;;11.20;60.20;;;;;;6238897;28;20048;-76
2021/11/17 09:39:10;;;;;;;2.80;1.10;;;11.10;60.10;;;;;;6245112;28;20053;-75
2021/11/17 09:42:12;;;;;;;4.60;1.27;;;11.20;60.20;;;;;;6265143;28;22764;-76
2021/11/17 09:45:13;;;;;;;1.90;0.93;;;11.20;60.20;;;;;;6219737;28;20065;-75
2021/11/17 09:48:18;;;;;;;4.78;1.35;;;11.20;60.30;;;;;;6231181;28;20076;-75
2021/11/17 09:51:26;;;;;;;1.95;1.02;;;11.20;60.10;;;;;;6234206;28;20033;-75
2021/11/17 09:54:37;;;;;;;2.90;1.23;;;11.20;60.20;;;;;;6244263;28;20040;-77
2021/11/17 09:57:42;;;;;;;2.33;1.40;;;11.20;60.00;;;;;;6248049;28;20034;-75
2021/11/17 10:00:49;;;;;;;1.80;1.10;;;11.30;59.70;;;;;;6251807;28;20080;-75
2021/11/17 10:03:58;;;;;;;5.20;2.15;;;11.40;59.60;;;;;;6253923;28;20053;-76
2021/11/17 10:13:48;;;;;;;2.55;1.40;;;11.50;59.10;;;;;;6263821;28;20398;-76
2021/11/17 10:16:49;;;;;;;1.77;1.02;;;11.40;59.00;;;;;;6263058;28;20064;-75
2021/11/17 10:20:06;;;;;;;1.00;0.90;;;11.40;59.00;;;;;;6247131;28;20474;-76
2021/11/17 10:23:16;;;;;;;4.85;1.13;;;11.50;58.90;;;;;;6254865;28;20037;-75
2021/11/17 10:26:22;;;;;;;2.80;1.40;;;11.50;58.90;;;;;;6255686;28;20080;-75
2021/11/17 10:29:28;;;;;;;2.08;1.10;;;11.60;58.70;;;;;;6236405;28;20091;-75
2021/11/17 10:32:47;;;;;;;4.88;1.50;;;11.60;58.60;;;;;;6252913;28;20553;-76
2021/11/17 10:36:06;;;;;;;4.65;1.33;;;11.60;58.50;;;;;;6262841;28;20048;-76
2021/11/17 10:39:20;;;;;;;1.15;1.05;;;11.60;58.50;;;;;;6264442;28;20432;-76
2021/11/17 10:42:21;;;;;;;4.60;1.48;;;11.60;58.50;;;;;;6279349;28;20140;-76
2021/11/17 10:45:52;;;;;;;4.47;1.40;;;11.60;58.40;;;;;;6260460;28;20045;-75
2021/11/17 10:48:58;;;;;;;1.42;0.85;;;11.60;58.40;;;;;;6253846;28;20041;-75
2021/11/17 10:52:05;;;;;;;1.33;0.97;;;11.60;58.30;;;;;;6259386;28;20346;-77
2021/11/17 10:55:18;;;;;;;4.13;1.38;;;11.60;58.40;;;;;;6256923;28;20470;-76
2021/11/17 10:58:27;;;;;;;3.22;1.15;;;11.60;58.40;;;;;;6274945;28;20041;-77
2021/11/17 11:01:38;;;;;;;11.15;1.40;;;11.60;58.40;;;;;;6262159;28;20248;-76
2021/11/17 11:04:51;;;;;;;4.63;1.67;;;11.60;58.40;;;;;;6254610;28;20052;-76
2021/11/17 11:08:01;;;;;;;2.33;1.15;;;11.70;58.40;;;;;;6270907;28;20116;-76
2021/11/17 11:11:04;;;;;;;2.35;1.27;;;11.70;58.50;;;;;;6262912;28;20029;-76
2021/11/17 11:14:13;;;;;;;3.15;1.50;;;11.70;58.50;;;;;;6255260;28;20048;-75
2021/11/17 11:17:27;;;;;;;2.67;1.38;;;11.70;58.40;;;;;;6260764;28;20037;-77
2021/11/17 11:20:35;;;;;;;2.80;1.30;;;11.70;58.50;;;;;;6260330;28;20025;-77
2021/11/17 11:23:56;;;;;;;;;;;11.80;58.50;;;;;;6267206;28;20036;-75
2021/11/17 11:27:00;;;;;;;4.47;2.10;;;11.80;58.50;;;;;;6259468;28;19996;-76
2021/11/17 11:30:04;;;;;;;2.35;1.33;;;11.80;58.40;;;;;;6257712;28;20524;-78
2021/11/17 11:33:25;;;;;;;2.90;1.35;;;11.80;58.40;;;;;;6244827;28;20042;-76
2021/11/17 11:36:39;;;;;;;3.40;1.50;;;11.80;58.60;;;;;;6268768;28;20295;-75
2021/11/17 11:39:46;;;;;;;2.92;1.20;;;11.80;58.50;;;;;;6265403;28;20040;-76
2021/11/17 11:43:17;;;;;;;5.60;1.83;;;11.80;58.40;;;;;;6247295;28;20045;-77
2021/11/17 11:46:34;;;;;;;4.82;1.58;;;11.70;58.50;;;;;;6259540;28;20052;-76
2021/11/17 11:49:40;;;;;;;2.40;1.40;;;11.70;58.40;;;;;;6235271;28;20029;-77
2021/11/17 11:53:17;;;;;;;2.35;1.10;;;11.80;58.60;;;;;;6263293;28;20143;-75
2021/11/17 11:56:25;;;;;;;2.22;1.52;;;11.80;58.60;;;;;;6205896;28;20038;-78
2021/11/17 11:59:29;;;;;;;2.20;1.13;;;11.90;58.40;;;;;;6213542;28;20056;-76
2021/11/17 12:02:37;;;;;;;1.52;1.02;;;11.90;58.20;;;;;;6209690;28;20636;-75
2021/11/17 12:05:38;;;;;;;1.65;0.98;;;11.90;58.00;;;;;;6216001;28;20188;-77
2021/11/17 12:08:45;;;;;;;2.70;1.35;;;12.00;58.00;;;;;;6214068;28;20477;-80
2021/11/17 12:11:59;;;;;;;2.80;1.30;;;12.00;57.80;;;;;;6217936;28;20043;-75
2021/11/17 12:15:21;;;;;;;1.83;1.05;;;11.90;57.80;;;;;;6198636;28;20042;-76
2021/11/17 12:18:23;;;;;;;2.17;1.20;;;12.00;57.90;;;;;;6215202;28;20453;-75
2021/11/17 12:21:41;;;;;;;4.13;1.65;;;12.00;57.80;;;;;;6217542;28;20045;-75
2021/11/17 12:25:20;;;;;;;3.10;1.40;;;11.90;57.70;;;;;;6197791;28;20033;-77
2021/11/17 12:28:21;;;;;;;3.35;1.38;;;11.90;57.90;;;;;;6211911;28;20072;-76
2021/11/17 12:31:27;;;;;;;2.78;1.67;;;11.90;57.90;;;;;;6194004;28;20133;-76
2021/11/17 12:34:34;;;;;;;2.38;1.20;;;11.90;57.90;;;;;;6252861;28;20034;-76
2021/11/17 12:37:52;;;;;;;2.78;1.40;;;11.90;57.90;;;;;;6260425;28;20068;-75
2021/11/17 12:41:03;;;;;;;2.20;1.20;;;11.90;57.90;;;;;;6253479;28;20060;-75
2021/11/17 12:44:13;;;;;;;2.78;1.35;;;11.90;58.50;;;;;;6261459;28;20033;-76
2021/11/17 12:47:28;;;;;;;2.85;1.15;;;11.80;58.00;;;;;;6241847;28;20421;-76
2021/11/17 12:50:34;;;;;;;1.55;1.15;;;11.90;58.20;;;;;;6255254;28;20374;-75
2021/11/17 12:54:16;;;;;;;3.65;1.20;;;11.90;58.20;;;;;;6266477;28;20033;-77
2021/11/17 12:57:26;;;;;;;2.25;1.30;;;11.90;58.30;;;;;;6249165;28;20140;-76
2021/11/17 13:00:30;;;;;;;2.30;1.33;;;11.90;58.20;;;;;;6265710;28;20065;-78
2021/11/17 13:03:36;;;;;;;1.75;1.05;;;11.80;58.20;;;;;;6262942;28;20029;-77
2021/11/17 13:06:39;;;;;;;2.83;1.08;;;11.90;58.30;;;;;;6246884;28;20041;-77
2021/11/17 13:09:40;;;;;;;2.60;1.27;;;11.90;58.20;;;;;;6260531;28;20138;-75
2021/11/17 13:12:43;;;;;;;2.30;1.33;;;11.90;58.10;;;;;;6260761;28;20112;-76
2021/11/17 13:15:57;;;;;;;1.27;0.80;;;11.90;58.20;;;;;;6254486;28;20029;-77
2021/11/17 13:19:18;;;;;;;5.93;1.25;;;12.00;58.20;;;;;;6256961;28;20467;-77
2021/11/17 13:22:26;;;;;;;2.00;1.10;;;12.00;58.00;;;;;;6250829;28;20473;-79
2021/11/17 13:25:46;;;;;;;1.73;1.05;;;12.00;58.10;;;;;;6261485;28;20090;-77
2021/11/17 13:28:50;;;;;;;2.72;1.35;;;12.00;57.90;;;;;;6257445;28;20049;-77
2021/11/17 13:32:11;;;;;;;1.55;0.88;;;12.00;57.90;;;;;;6244727;28;20037;-77
2021/11/17 13:35:28;;;;;;;4.30;2.10;;;11.90;57.90;;;;;;6252439;28;20040;-77
2021/11/17 13:38:30;;;;;;;3.97;0.90;;;11.90;57.90;;;;;;6250996;28;20038;-77
2021/11/17 13:41:35;;;;;;;3.25;0.98;;;11.90;57.90;;;;;;6255216;28;20029;-77
2021/11/17 13:44:36;;;;;;;1.38;0.60;;;11.80;57.80;;;;;;6235846;28;20030;-78
2021/11/17 13:47:38;;;;;;;1.23;0.80;;;11.80;57.90;;;;;;6237489;28;20055;-76
2021/11/17 13:50:41;;;;;;;2.03;1.10;;;11.80;58.10;;;;;;6261161;28;20120;-76
2021/11/17 13:53:42;;;;;;;1.38;0.90;;;11.80;58.20;;;;;;6255214;28;20030;-77
2021/11/17 13:56:43;;;;;;;6.82;1.42;;;11.80;58.90;;;;;;6254901;28;20120;-78
2021/11/17 13:59:46;;;;;;;3.08;1.13;;;11.80;58.40;;;;;;6251225;28;20052;-76
2021/11/17 14:02:48;;;;;;;3.40;1.33;;;11.80;58.40;;;;;;6253955;28;20045;-77
2021/11/17 14:05:49;;;;;;;4.10;0.95;;;11.80;58.40;;;;;;6271222;28;20481;-76
2021/11/17 14:08:50;;;;;;;3.17;1.15;;;11.80;58.50;;;;;;6265768;28;20132;-75
2021/11/17 14:11:52;;;;;;;1.83;1.33;;;11.80;58.50;;;;;;6265630;28;20029;-76
2021/11/17 14:14:53;;;;;;;1.08;0.85;;;11.80;58.50;;;;;;6241797;28;20537;-77
2021/11/17 14:17:54;;;;;;;2.72;1.65;;;11.80;58.50;;;;;;6251698;28;20041;-79
2021/11/17 14:21:00;;;;;;;2.60;0.98;;;11.80;58.50;;;;;;6289792;28;20489;-78
2021/11/17 14:24:03;;;;;;;1.20;0.93;;;11.80;58.60;;;;;;6258708;28;20056;-77
2021/11/17 14:27:07;;;;;;;2.33;1.25;;;11.80;58.60;;;;;;6261873;28;20359;-79
2021/11/17 14:30:41;;;;;;;2.55;1.17;;;11.80;58.60;;;;;;6271459;28;20083;-76
2021/11/17 14:33:45;;;;;;;3.22;1.20;;;11.80;58.60;;;;;;6254604;28;20029;-77
2021/11/17 14:36:53;;;;;;;3.13;1.73;;;11.80;58.60;;;;;;6241954;28;20451;-76
2021/11/17 14:39:54;;;;;;;3.15;1.50;;;11.70;58.60;;;;;;6259434;28;20041;-76
2021/11/17 14:42:56;;;;;;;1.13;1.02;;;11.70;58.80;;;;;;6237219;28;20037;-76
2021/11/17 14:45:57;;;;;;;1.58;0.85;;;11.70;58.90;;;;;;6251179;28;20055;-76
2021/11/17 14:48:58;;;;;;;3.40;1.73;;;11.70;59.00;;;;;;6254293;28;20033;-76
2021/11/17 14:52:00;;;;;;;3.85;1.25;;;11.70;59.10;;;;;;6248576;28;20359;-76
2021/11/17 14:55:01;;;;;;;3.75;0.90;;;11.70;59.10;;;;;;6248278;28;20116;-76
2021/11/17 14:58:03;;;;;;;2.97;1.70;;;11.70;59.10;;;;;;6266953;28;20095;-77
2021/11/17 15:01:10;;;;;;;2.58;1.15;;;11.70;59.10;;;;;;6248335;28;20037;-76
2021/11/17 15:04:11;;;;;;;1.60;1.02;;;11.70;59.10;;;;;;6248406;28;20040;-77
2021/11/17 15:07:14;;;;;;;1.33;0.88;;;11.70;59.10;;;;;;6247811;28;20083;-76
2021/11/17 15:10:15;;;;;;;2.38;1.05;;;11.70;59.10;;;;;;6259107;28;20080;-77
2021/11/17 15:13:17;;;;;;;1.40;0.93;;;11.70;59.10;;;;;;6258222;28;20453;-75
2021/11/17 15:16:19;;;;;;;1.85;0.90;;;11.70;59.10;;;;;;6263808;28;20520;-75
2021/11/17 15:19:21;;;;;;;1.80;0.90;;;11.80;59.00;;;;;;6255786;28;20033;-75
2021/11/17 15:22:24;;;;;;;0.77;0.60;;;11.80;58.70;;;;;;6263359;28;20064;-76
2021/11/17 15:25:29;;;;;;;2.33;1.05;;;11.80;58.50;;;;;;6246985;28;20454;-77
2021/11/17 15:28:38;;;;;;;3.10;1.40;;;11.80;58.40;;;;;;6267193;28;20033;-76
2021/11/17 15:31:39;;;;;;;1.45;0.80;;;11.80;58.40;;;;;;6236085;28;20112;-76
2021/11/17 15:34:40;;;;;;;1.73;0.93;;;11.80;58.40;;;;;;6264008;28;20047;-77
2021/11/17 15:37:41;;;;;;;2.15;1.13;;;11.80;58.30;;;;;;6263113;28;20051;-77
2021/11/17 15:40:46;;;;;;;6.25;1.10;;;11.80;58.20;;;;;;6267177;28;20049;-76
2021/11/17 15:43:49;;;;;;;1.60;1.00;;;11.80;58.10;;;;;;6232755;28;20038;-75
2021/11/17 15:47:00;;;;;;;2.92;1.23;;;11.80;58.20;;;;;;6268492;28;20044;-76
2021/11/17 15:50:04;;;;;;;1.40;0.98;;;11.70;58.30;;;;;;6265106;28;20025;-76
2021/11/17 15:53:06;;;;;;;2.13;1.20;;;11.70;58.40;;;;;;6274128;28;20036;-78
2021/11/17 15:56:08;;;;;;;4.97;1.48;;;11.70;58.40;;;;;;6253407;28;20037;-78
2021/11/17 15:59:12;;;;;;;1.45;0.98;;;11.70;58.50;;;;;;6269664;28;20111;-77
2021/11/17 16:02:14;;;;;;;2.00;1.20;;;11.70;58.60;;;;;;6251220;28;20059;-75
2021/11/17 16:05:16;;;;;;;3.00;0.95;;;11.70;58.70;;;;;;6264883;28;20399;-79
2021/11/17 16:08:20;;;;;;;1.55;0.98;;;11.70;58.70;;;;;;6250856;28;20045;-78
2021/11/17 16:11:21;;;;;;;4.20;1.23;;;11.70;58.70;;;;;;6269973;28;20476;-77
2021/11/17 16:14:22;;;;;;;5.03;1.30;;;11.70;58.70;;;;;;6257422;28;20062;-78
2021/11/17 16:17:24;;;;;;;2.95;1.02;;;11.70;58.60;;;;;;6244950;28;20030;-77
2021/11/17 16:20:32;;;;;;;3.47;1.15;;;11.80;58.60;;;;;;6240437;28;20033;-75
2021/11/17 16:26:42;;;;;;;1.90;1.00;;;11.80;58.50;;;;;;6241706;28;20091;-75
2021/11/17 16:29:48;;;;;;;1.88;1.35;;;11.80;58.50;;;;;;6248672;28;20029;-78
2021/11/17 16:32:50;;;;;;;2.90;1.27;;;11.80;58.50;;;;;;6281221;28;20034;-78
2021/11/17 16:35:52;;;;;;;1.17;1.05;;;11.80;58.50;;;;;;6262749;28;20057;-77
2021/11/17 16:38:53;;;;;;;2.55;1.30;;;11.80;58.50;;;;;;6268879;28;20484;-76
2021/11/17 16:41:54;;;;;;;2.10;1.25;;;11.80;58.30;;;;;;6261352;28;20041;-77
2021/11/17 16:44:56;;;;;;;1.85;1.05;;;11.80;58.30;;;;;;6264964;28;20045;-77
2021/11/17 16:47:58;;;;;;;5.90;1.48;;;11.80;58.40;;;;;;6273677;28;20077;-77
2021/11/17 16:50:59;;;;;;;2.20;1.30;;;11.80;58.30;;;;;;6257102;28;20087;-77
2021/11/17 16:54:01;;;;;;;4.40;1.70;;;11.90;58.30;;;;;;6253406;28;20477;-76
2021/11/17 16:57:02;;;;;;;2.35;1.35;;;11.90;58.20;;;;;;6268867;28;20470;-77
2021/11/17 17:00:05;;;;;;;2.13;1.23;;;11.90;58.20;;;;;;6242908;28;20044;-77
2021/11/17 17:03:11;;;;;;;1.80;1.20;;;11.90;58.20;;;;;;6239807;28;20431;-76
2021/11/17 17:06:18;;;;;;;2.92;1.40;;;11.90;58.10;;;;;;6229813;28;20033;-77
2021/11/17 17:09:19;;;;;;;1.67;1.10;;;11.90;57.90;;;;;;6257387;28;20114;-78
2021/11/17 17:12:28;;;;;;;2.95;1.52;;;11.90;57.90;;;;;;6233927;28;20049;-77
2021/11/17 17:15:31;;;;;;;2.92;1.77;;;11.80;58.10;;;;;;6252603;28;20033;-75
2021/11/17 17:18:32;;;;;;;4.18;1.60;;;11.80;58.20;;;;;;6229710;28;20041;-75
2021/11/17 17:21:34;;;;;;;4.22;1.60;;;11.80;58.20;;;;;;6237370;28;20037;-76
2021/11/17 17:24:35;;;;;;;5.20;2.00;;;11.80;58.40;;;;;;6232821;28;20120;-75
2021/11/17 17:27:38;;;;;;;7.78;3.10;;;11.80;58.40;;;;;;6253066;28;20025;-76
2021/11/17 17:30:41;;;;;;;2.88;1.45;;;11.80;58.40;;;;;;6266344;28;20071;-76
2021/11/17 17:33:45;;;;;;;3.78;1.60;;;11.80;58.40;;;;;;6251225;28;20033;-77
2021/11/17 17:36:46;;;;;;;6.40;2.22;;;11.80;58.30;;;;;;6262738;28;20465;-77
2021/11/17 17:39:47;;;;;;;5.05;1.80;;;11.80;58.30;;;;;;6265436;28;20041;-78
2021/11/17 17:42:48;;;;;;;5.38;2.20;;;11.80;58.30;;;;;;6260888;28;20595;-76
2021/11/17 17:45:50;;;;;;;3.75;1.90;;;11.70;58.20;;;;;;6264454;28;20148;-76
2021/11/17 17:48:51;;;;;;;2.70;1.70;;;11.70;58.30;;;;;;6263693;28;20476;-77
2021/11/17 17:51:52;;;;;;;8.23;2.35;;;11.70;58.40;;;;;;6263903;28;20120;-76
2021/11/17 17:54:55;;;;;;;4.05;1.73;;;11.60;58.30;;;;;;6249607;28;20033;-80
2021/11/17 17:57:56;;;;;;;5.03;2.75;;;11.60;58.40;;;;;;6250516;28;20047;-76
2021/11/17 18:01:00;;;;;;;6.45;1.90;;;11.60;58.40;;;;;;6247910;28;20032;-77
2021/11/17 18:04:01;;;;;;;7.50;2.53;;;11.40;58.20;;;;;;6241455;28;20060;-77
2021/11/17 18:07:02;;;;;;;4.63;2.35;;;11.60;58.40;;;;;;6253032;28;20128;-77
2021/11/17 18:10:04;;;;;;;3.22;1.70;;;11.50;58.40;;;;;;6269667;28;20033;-78
2021/11/17 18:13:06;;;;;;;3.70;2.17;;;11.50;58.60;;;;;;6266618;28;20041;-79
2021/11/17 18:16:08;;;;;;;5.97;2.22;;;11.50;58.50;;;;;;6262513;28;20040;-76
2021/11/17 18:19:09;;;;;;;3.97;2.17;;;11.50;58.50;;;;;;6254278;28;20033;-75
2021/11/17 18:22:10;;;;;;;7.28;2.33;;;11.50;58.50;;;;;;6260670;28;20047;-76
2021/11/17 18:25:17;;;;;;;4.93;2.42;;;11.50;58.60;;;;;;6263944;28;20037;-77
2021/11/17 18:28:18;;;;;;;4.00;1.85;;;11.50;58.70;;;;;;6251426;28;20450;-76
2021/11/17 18:31:20;;;;;;;4.97;2.40;;;11.40;58.60;;;;;;6248493;28;20091;-75
2021/11/17 18:34:22;;;;;;;3.65;2.10;;;11.50;58.80;;;;;;6244448;28;20025;-77
2021/11/17 18:37:24;;;;;;;4.03;1.83;;;11.50;58.80;;;;;;6237595;28;20874;-76
2021/11/17 18:40:28;;;;;;;3.58;1.98;;;11.50;58.80;;;;;;6235002;28;20068;-76
2021/11/17 18:43:29;;;;;;;6.80;2.42;;;11.50;58.80;;;;;;6233161;28;20042;-76
2021/11/17 18:46:32;;;;;;;5.03;2.13;;;11.50;58.80;;;;;;6228287;28;20042;-75
2021/11/17 18:49:33;;;;;;;4.50;2.28;;;11.50;58.70;;;;;;6219950;28;20041;-76
2021/11/17 18:52:35;;;;;;;7.97;2.60;;;11.60;58.70;;;;;;6249985;28;20056;-76
2021/11/17 18:55:37;;;;;;;4.88;2.33;;;11.60;58.60;;;;;;6238886;28;21763;-75